METAR Data
IDs: Format: Raw Decoded Include TAF

Data at: 1705 UTC 03 Jun 2020

KAIZ 031656Z AUTO 23010KT 10SM 29/22 A2993 RMK AO2 SLP126 T02940222 $
KAIZ 031556Z AUTO 25011KT 10SM 29/22 A2994 RMK AO2 SLP128 T02890222 $
KAIZ 031456Z AUTO 25010KT 10SM 27/21 A2996 RMK AO2 SLP136 T02720211 58001 $
KAIZ 031356Z AUTO 25007KT 10SM SCT060 25/21 A2997 RMK AO2 SLP141 T02500206
KAIZ 031256Z AUTO 24007KT 10SM FEW065 23/20 A2997 RMK AO2 SLP138 T02330200
KAIZ 031156Z AUTO 24006KT 10SM CLR 22/19 A2997 RMK AO2 SLP137 T02170189 10217 20172 55006
KAIZ 031056Z AUTO 23005KT 10SM CLR 20/18 A2996 RMK AO2 SLP136 T02000183
KAIZ 030956Z AUTO 20003KT 10SM CLR 17/17 A2997 RMK AO2 SLP140 T01720167
KAIZ 030856Z AUTO 00000KT 10SM CLR 18/17 A2998 RMK AO2 SLP144 T01830172 56008
KAIZ 030756Z AUTO 20004KT 10SM CLR 21/18 A2999 RMK AO2 SLP147 T02060178
KAIZ 030656Z AUTO 19003KT 10SM CLR 20/18 A3000 RMK AO2 SLP148 T02000178
KAIZ 030556Z AUTO 00000KT 10SM CLR 20/18 A3001 RMK AO2 SLP153 T02000183 10278 20189 403000150 50006
KAIZ 030456Z AUTO 00000KT 10SM CLR 19/18 A3002 RMK AO2 SLP156 T01940183
KAIZ 030356Z AUTO 22004KT 10SM CLR 23/19 A3000 RMK AO2 SLP150 T02280194
KAIZ 030256Z AUTO 18003KT 10SM CLR 22/19 A2999 RMK AO2 SLP148 T02170194 53001
KAIZ 030156Z AUTO 00000KT 10SM CLR 23/20 A2999 RMK AO2 SLP147 T02280200
KAIZ 030056Z AUTO 17003KT 10SM CLR 26/20 A2999 RMK AO2 SLP145 T02610200
KAIZ 022356Z AUTO 19005KT 10SM CLR 28/20 A2999 RMK AO2 SLP148 T02780200 10300 20278 58011
KAIZ 022256Z AUTO 20007KT 10SM CLR 29/19 A3000 RMK AO2 SLP154 T02890189
KAIZ 022156Z AUTO 21009KT 10SM CLR 29/17 A3002 RMK AO2 SLP157 T02940172
KAIZ 022056Z AUTO 22008KT 10SM CLR 30/18 A3002 RMK AO2 SLP158 T03000178 56017
KAIZ 021956Z AUTO 19009KT 170V240 10SM CLR 29/18 A3004 RMK AO2 SLP162 T02940183
KAIZ 021856Z AUTO 22007KT 10SM CLR 29/18 A3006 RMK AO2 SLP168 T02890183
KAIZ 021756Z AUTO 28007KT 10SM CLR 28/19 A3007 RMK AO2 SLP174 T02780189 10278 20172 58011
KAIZ 021656Z AUTO 24009KT 10SM CLR 28/18 A3009 RMK AO2 SLP179 T02780178
KAIZ 021556Z AUTO 22009KT 10SM CLR 26/18 A3010 RMK AO2 SLP183 T02610183
KAIZ 021456Z AUTO 23008KT 10SM CLR 24/17 A3011 RMK AO2 SLP188 T02440172 50001
KAIZ 021356Z AUTO 24008KT 10SM CLR 23/17 A3011 RMK AO2 SLP189 T02330172
KAIZ 021256Z AUTO 22006KT 10SM CLR 21/17 A3011 RMK AO2 SLP188 T02110172
KAIZ 021156Z AUTO 00000KT 10SM CLR 17/16 A3010 RMK AO2 SLP187 T01720156 10206 20150 53009
KAIZ 021056Z AUTO 05003KT 10SM CLR 15/14 A3009 RMK AO2 SLP184 T01500144
KAIZ 020956Z AUTO 00000KT 10SM CLR 16/15 A3008 RMK AO2 SLP180 T01560150
KAIZ 020856Z AUTO 18003KT 10SM CLR 17/16 A3008 RMK AO2 SLP178 T01720161 56005
KAIZ 020756Z AUTO 18003KT 10SM CLR 18/16 A3008 RMK AO2 SLP178 T01780161
KAIZ 020656Z AUTO 00000KT 10SM CLR 19/16 A3008 RMK AO2 SLP179 T01940161
KAIZ 020556Z AUTO 21005KT 10SM CLR 21/16 A3009 RMK AO2 SLP182 T02060161 10278 20200 402890156 58004